Terminal Aerodrome Forecast
Issued by NWS

Home | Current Version | Previous Version | Text Only | Print | Product List | Glossary On
Versions: 1 2 3 4 5 6 7 8 9 10 11 12 13 14 15 16 17 18 19 20 21 22 23 24 25 26 27 28 29 30 31 32 33 34 35 36 37 38 39 40 41 42 43 44 45 46 47 48 49 50
000
FTUS44 KHGX 251127
TAFIAH
TAF
KIAH 251127Z 2512/2618 VRB05KT P6SM VCTS SCT027CB BKN040 OVC250
      TEMPO 2512/2514 4SM TSRA BKN025CB
     FM251400 13009KT P6SM VCTS SCT025CB BKN045
      TEMPO 2514/2517 VRB15G25KT 3SM TSRA BKN025CB
     FM252100 14010KT P6SM VCTS SCT035CB SCT080 BKN150
     FM260400 14008KT P6SM SCT025 BKN140
     FM261000 14006KT P6SM BKN020
     FM261600 13010KT P6SM SCT035 BKN150=

USA.gov is the U.S. government's official web portal to all federal, state and local government web resources and services.